sensor_id;sensor_type;location;lat;lon;timestamp;P1;durP1;ratioP1;P2;durP2;ratioP2
59986;SDS011;46181;51.498;5.392;2023-04-03T00:02:55;9.044;;;5.948;;
59986;SDS011;46181;51.498;5.392;2023-04-03T00:07:25;9.500001;;;5.800001;;
59986;SDS011;46181;51.498;5.392;2023-04-03T00:11:55;9.731998;;;5.548;;
59986;SDS011;46181;51.498;5.392;2023-04-03T00:16:25;10.264;;;6.003999;;
59986;SDS011;46181;51.498;5.392;2023-04-03T00:20:55;8.599999;;;5.772001;;
59986;SDS011;46181;51.498;5.392;2023-04-03T00:25:25;10.9;;;6.119998;;
59986;SDS011;46181;51.498;5.392;2023-04-03T00:29:55;9.760003;;;5.235999;;
59986;SDS011;46181;51.498;5.392;2023-04-03T00:34:25;9.788;;;5.668001;;
59986;SDS011;46181;51.498;5.392;2023-04-03T00:38:55;9.995998;;;5.856;;
59986;SDS011;46181;51.498;5.392;2023-04-03T00:43:25;12.436;;;5.823999;;
59986;SDS011;46181;51.498;5.392;2023-04-03T00:47:55;8.452002;;;5.316001;;
59986;SDS011;46181;51.498;5.392;2023-04-03T00:52:26;7.660001;;;5.36;;
59986;SDS011;46181;51.498;5.392;2023-04-03T00:56:55;10.54;;;5.632;;
59986;SDS011;46181;51.498;5.392;2023-04-03T01:01:26;9.931999;;;5.984;;
59986;SDS011;46181;51.498;5.392;2023-04-03T01:05:55;8.816001;;;5.616;;
59986;SDS011;46181;51.498;5.392;2023-04-03T01:10:25;10.412;;;5.712001;;
59986;SDS011;46181;51.498;5.392;2023-04-03T01:14:56;9.016001;;;5.576;;
59986;SDS011;46181;51.498;5.392;2023-04-03T01:19:25;9.044001;;;5.292001;;
59986;SDS011;46181;51.498;5.392;2023-04-03T01:24:01;9.452001;;;5.772;;
59986;SDS011;46181;51.498;5.392;2023-04-03T01:28:26;11.504;;;6.228001;;
59986;SDS011;46181;51.498;5.392;2023-04-03T01:32:55;8.539999;;;5.967999;;
59986;SDS011;46181;51.498;5.392;2023-04-03T01:37:25;9.851998;;;5.556;;
59986;SDS011;46181;51.498;5.392;2023-04-03T01:41:55;9.131999;;;5.28;;
59986;SDS011;46181;51.498;5.392;2023-04-03T01:46:25;9;;;5.536;;
59986;SDS011;46181;51.498;5.392;2023-04-03T01:50:55;11.536;;;5.4;;
59986;SDS011;46181;51.498;5.392;2023-04-03T01:55:25;9.903999;;;5.368001;;
59986;SDS011;46181;51.498;5.392;2023-04-03T01:59:55;8.204;;;5.208001;;
59986;SDS011;46181;51.498;5.392;2023-04-03T02:04:25;9.000003;;;5.067999;;
59986;SDS011;46181;51.498;5.392;2023-04-03T02:08:55;7.688;;;5.280001;;
59986;SDS011;46181;51.498;5.392;2023-04-03T02:13:25;7.296;;;5.456;;
59986;SDS011;46181;51.498;5.392;2023-04-03T02:17:55;7.652;;;5.151999;;
59986;SDS011;46181;51.498;5.392;2023-04-03T02:22:25;8.767998;;;5.068;;
59986;SDS011;46181;51.498;5.392;2023-04-03T02:26:55;9.715999;;;5.151999;;
59986;SDS011;46181;51.498;5.392;2023-04-03T02:31:25;9.116;;;5.719999;;
59986;SDS011;46181;51.498;5.392;2023-04-03T02:35:56;9.135999;;;5.016;;
59986;SDS011;46181;51.498;5.392;2023-04-03T02:40:25;7.815999;;;4.624;;
59986;SDS011;46181;51.498;5.392;2023-04-03T02:44:55;7.844001;;;5.004;;
59986;SDS011;46181;51.498;5.392;2023-04-03T02:49:25;6.596;;;4.631999;;
59986;SDS011;46181;51.498;5.392;2023-04-03T02:53:55;6.616;;;4.476;;
59986;SDS011;46181;51.498;5.392;2023-04-03T02:58:25;7.548001;;;4.772001;;
59986;SDS011;46181;51.498;5.392;2023-04-03T03:02:55;8.584;;;4.384;;
59986;SDS011;46181;51.498;5.392;2023-04-03T03:07:25;6.332001;;;4.452;;
59986;SDS011;46181;51.498;5.392;2023-04-03T03:11:55;7.512001;;;4.084;;
59986;SDS011;46181;51.498;5.392;2023-04-03T03:16:25;6.300001;;;3.924;;
59986;SDS011;46181;51.498;5.392;2023-04-03T03:20:56;8.536;;;4.220001;;
59986;SDS011;46181;51.498;5.392;2023-04-03T03:25:25;5.82;;;3.912;;
59986;SDS011;46181;51.498;5.392;2023-04-03T03:29:55;6.004;;;3.964;;
59986;SDS011;46181;51.498;5.392;2023-04-03T03:34:25;8.976001;;;4.119999;;
59986;SDS011;46181;51.498;5.392;2023-04-03T03:38:55;6.164001;;;3.796;;
59986;SDS011;46181;51.498;5.392;2023-04-03T03:43:25;6.764001;;;3.592;;
59986;SDS011;46181;51.498;5.392;2023-04-03T03:47:55;5.52;;;3.4;;
59986;SDS011;46181;51.498;5.392;2023-04-03T03:52:25;7.38;;;3.508;;
59986;SDS011;46181;51.498;5.392;2023-04-03T03:56:55;7.008;;;3.324;;
59986;SDS011;46181;51.498;5.392;2023-04-03T04:01:25;7.128;;;3.372;;
59986;SDS011;46181;51.498;5.392;2023-04-03T04:05:55;6.976;;;3.472;;
59986;SDS011;46181;51.498;5.392;2023-04-03T04:10:25;4.612;;;2.959999;;
59986;SDS011;46181;51.498;5.392;2023-04-03T04:14:55;6.351999;;;2.884;;
59986;SDS011;46181;51.498;5.392;2023-04-03T04:19:25;7.376;;;3.168;;
59986;SDS011;46181;51.498;5.392;2023-04-03T04:23:55;6.368;;;2.852;;
59986;SDS011;46181;51.498;5.392;2023-04-03T04:28:25;5.432001;;;2.756;;
59986;SDS011;46181;51.498;5.392;2023-04-03T04:32:55;4.372;;;2.376;;
59986;SDS011;46181;51.498;5.392;2023-04-03T04:37:25;4.815999;;;2.608;;
59986;SDS011;46181;51.498;5.392;2023-04-03T04:41:55;5.319999;;;2.648;;
59986;SDS011;46181;51.498;5.392;2023-04-03T04:46:25;7.944;;;2.696;;
59986;SDS011;46181;51.498;5.392;2023-04-03T04:50:55;6.452;;;3.076001;;
59986;SDS011;46181;51.498;5.392;2023-04-03T04:55:25;4.743999;;;2.384;;
59986;SDS011;46181;51.498;5.392;2023-04-03T04:59:55;7.351999;;;2.784;;
59986;SDS011;46181;51.498;5.392;2023-04-03T05:04:25;6.156;;;2.816001;;
59986;SDS011;46181;51.498;5.392;2023-04-03T05:08:55;5.468;;;2.456;;
59986;SDS011;46181;51.498;5.392;2023-04-03T05:13:25;5.788001;;;2.467999;;
59986;SDS011;46181;51.498;5.392;2023-04-03T05:17:55;4.972001;;;2.064;;
59986;SDS011;46181;51.498;5.392;2023-04-03T05:22:25;4.72;;;2.376;;
59986;SDS011;46181;51.498;5.392;2023-04-03T05:26:55;4.968001;;;2.516;;
59986;SDS011;46181;51.498;5.392;2023-04-03T05:31:25;4.364001;;;1.964;;
59986;SDS011;46181;51.498;5.392;2023-04-03T05:35:55;5.332;;;2.244;;
59986;SDS011;46181;51.498;5.392;2023-04-03T05:40:25;7.072;;;2.072;;
59986;SDS011;46181;51.498;5.392;2023-04-03T05:44:55;6.472;;;1.764;;
59986;SDS011;46181;51.498;5.392;2023-04-03T05:49:25;5.288;;;2.26;;
59986;SDS011;46181;51.498;5.392;2023-04-03T05:53:56;3.856;;;2;;
59986;SDS011;46181;51.498;5.392;2023-04-03T05:58:25;3.904001;;;1.888;;
59986;SDS011;46181;51.498;5.392;2023-04-03T06:02:55;4.243999;;;1.908;;
59986;SDS011;46181;51.498;5.392;2023-04-03T06:07:25;6.224;;;1.984;;
59986;SDS011;46181;51.498;5.392;2023-04-03T06:11:55;5.604;;;2.079999;;
59986;SDS011;46181;51.498;5.392;2023-04-03T06:16:25;4.627999;;;1.932;;
59986;SDS011;46181;51.498;5.392;2023-04-03T06:20:55;3.943999;;;1.804;;
59986;SDS011;46181;51.498;5.392;2023-04-03T06:25:25;6.199999;;;2.068;;
59986;SDS011;46181;51.498;5.392;2023-04-03T06:29:55;4.152;;;1.908;;
59986;SDS011;46181;51.498;5.392;2023-04-03T06:34:25;4.851999;;;2.108;;
59986;SDS011;46181;51.498;5.392;2023-04-03T06:38:55;5.231999;;;1.976;;
59986;SDS011;46181;51.498;5.392;2023-04-03T06:43:25;4.860002;;;1.756;;
59986;SDS011;46181;51.498;5.392;2023-04-03T06:47:55;5.808001;;;2.092;;
59986;SDS011;46181;51.498;5.392;2023-04-03T06:52:25;4.719999;;;1.896;;
59986;SDS011;46181;51.498;5.392;2023-04-03T06:56:55;3.344;;;1.492;;
59986;SDS011;46181;51.498;5.392;2023-04-03T07:01:26;6.596;;;1.832;;
59986;SDS011;46181;51.498;5.392;2023-04-03T07:05:55;3.616;;;1.412;;
59986;SDS011;46181;51.498;5.392;2023-04-03T07:10:25;5.836;;;1.708001;;
59986;SDS011;46181;51.498;5.392;2023-04-03T07:14:55;4.092;;;1.684;;
59986;SDS011;46181;51.498;5.392;2023-04-03T07:19:25;4.384;;;1.596;;
59986;SDS011;46181;51.498;5.392;2023-04-03T07:23:55;5.224;;;1.964;;
59986;SDS011;46181;51.498;5.392;2023-04-03T07:28:25;5.943999;;;1.832;;
59986;SDS011;46181;51.498;5.392;2023-04-03T07:32:55;4.3;;;1.728;;
59986;SDS011;46181;51.498;5.392;2023-04-03T07:37:25;4.408;;;1.86;;
59986;SDS011;46181;51.498;5.392;2023-04-03T07:41:55;3.911999;;;1.824;;
59986;SDS011;46181;51.498;5.392;2023-04-03T07:46:25;4.087999;;;1.852;;
59986;SDS011;46181;51.498;5.392;2023-04-03T07:50:58;2.788;;;1.432;;
59986;SDS011;46181;51.498;5.392;2023-04-03T07:55:25;5.176001;;;1.412;;
59986;SDS011;46181;51.498;5.392;2023-04-03T07:59:55;3.967999;;;1.5;;
59986;SDS011;46181;51.498;5.392;2023-04-03T08:04:25;3.716;;;1.332;;
59986;SDS011;46181;51.498;5.392;2023-04-03T08:08:55;4.696;;;1.42;;
59986;SDS011;46181;51.498;5.392;2023-04-03T08:13:25;3.612;;;1.108;;
59986;SDS011;46181;51.498;5.392;2023-04-03T08:17:55;4.744;;;1.7;;
59986;SDS011;46181;51.498;5.392;2023-04-03T08:22:25;3.256;;;1.308;;
59986;SDS011;46181;51.498;5.392;2023-04-03T08:26:55;5.944;;;1.832;;
59986;SDS011;46181;51.498;5.392;2023-04-03T08:31:25;3.876;;;1.304;;
59986;SDS011;46181;51.498;5.392;2023-04-03T08:35:55;3.952;;;1.476;;
59986;SDS011;46181;51.498;5.392;2023-04-03T08:40:25;3.44;;;1.208;;
59986;SDS011;46181;51.498;5.392;2023-04-03T08:44:57;5.308;;;1.672;;
59986;SDS011;46181;51.498;5.392;2023-04-03T08:49:26;5.004001;;;1.516;;
59986;SDS011;46181;51.498;5.392;2023-04-03T08:53:56;3.356;;;1.116;;
59986;SDS011;46181;51.498;5.392;2023-04-03T08:58:26;4.144001;;;1.136;;
59986;SDS011;46181;51.498;5.392;2023-04-03T09:02:56;3.18;;;1;;
59986;SDS011;46181;51.498;5.392;2023-04-03T09:07:29;4.196;;;0.932;;
59986;SDS011;46181;51.498;5.392;2023-04-03T09:11:57;3.684;;;0.968;;
59986;SDS011;46181;51.498;5.392;2023-04-03T09:16:30;3.428;;;1.024;;
59986;SDS011;46181;51.498;5.392;2023-04-03T09:20:59;3.716001;;;1.14;;
59986;SDS011;46181;51.498;5.392;2023-04-03T09:25:27;2.816;;;1.02;;
59986;SDS011;46181;51.498;5.392;2023-04-03T09:29:56;3.492;;;1.128;;
59986;SDS011;46181;51.498;5.392;2023-04-03T09:34:26;1.46;;;0.6;;
59986;SDS011;46181;51.498;5.392;2023-04-03T09:39:07;2.72;;;0.824;;
59986;SDS011;46181;51.498;5.392;2023-04-03T09:43:27;2.36;;;0.828;;
59986;SDS011;46181;51.498;5.392;2023-04-03T09:48:03;2.304;;;0.616;;
59986;SDS011;46181;51.498;5.392;2023-04-03T09:52:26;1.984;;;0.78;;
59986;SDS011;46181;51.498;5.392;2023-04-03T09:56:55;2.064;;;0.7;;
59986;SDS011;46181;51.498;5.392;2023-04-03T10:01:29;2.6;;;0.796;;
59986;SDS011;46181;51.498;5.392;2023-04-03T10:05:55;2.752;;;0.9;;
59986;SDS011;46181;51.498;5.392;2023-04-03T10:10:25;3.972;;;1.208;;
59986;SDS011;46181;51.498;5.392;2023-04-03T10:14:59;2.043999;;;0.7;;
59986;SDS011;46181;51.498;5.392;2023-04-03T10:19:29;1.38;;;0.684;;
59986;SDS011;46181;51.498;5.392;2023-04-03T10:23:57;2.164;;;0.6;;
59986;SDS011;46181;51.498;5.392;2023-04-03T10:28:27;1.34;;;0.712;;
59986;SDS011;46181;51.498;5.392;2023-04-03T10:32:58;1.524;;;0.6;;
59986;SDS011;46181;51.498;5.392;2023-04-03T10:37:26;2.664;;;0.868;;
59986;SDS011;46181;51.498;5.392;2023-04-03T10:41:59;1.348;;;0.656;;
59986;SDS011;46181;51.498;5.392;2023-04-03T10:46:27;2.076;;;0.7;;
59986;SDS011;46181;51.498;5.392;2023-04-03T10:50:58;1.972;;;0.8;;
59986;SDS011;46181;51.498;5.392;2023-04-03T10:55:28;3.1;;;0.9;;
59986;SDS011;46181;51.498;5.392;2023-04-03T10:59:56;1.784;;;0.688;;
59986;SDS011;46181;51.498;5.392;2023-04-03T11:04:26;1.544;;;0.6;;
59986;SDS011;46181;51.498;5.392;2023-04-03T11:08:57;1.604;;;0.616;;
59986;SDS011;46181;51.498;5.392;2023-04-03T11:13:26;2.328;;;0.868;;
59986;SDS011;46181;51.498;5.392;2023-04-03T11:17:57;2.316;;;0.716;;
59986;SDS011;46181;51.498;5.392;2023-04-03T11:22:27;2.312;;;0.588;;
59986;SDS011;46181;51.498;5.392;2023-04-03T11:26:55;1.992;;;0.536;;
59986;SDS011;46181;51.498;5.392;2023-04-03T11:31:35;2.996;;;0.688;;
59986;SDS011;46181;51.498;5.392;2023-04-03T11:35:57;1.416;;;0.58;;
59986;SDS011;46181;51.498;5.392;2023-04-03T11:40:26;2.088;;;0.672;;
59986;SDS011;46181;51.498;5.392;2023-04-03T11:44:56;2.248;;;0.7;;
59986;SDS011;46181;51.498;5.392;2023-04-03T11:53:55;1.952;;;0.796;;
59986;SDS011;46181;51.498;5.392;2023-04-03T11:58:26;2.444;;;0.928;;
59986;SDS011;46181;51.498;5.392;2023-04-03T12:02:55;1.24;;;0.648;;
59986;SDS011;46181;51.498;5.392;2023-04-03T12:07:25;1.372;;;0.572;;
59986;SDS011;46181;51.498;5.392;2023-04-03T12:11:56;1.988;;;0.512;;
59986;SDS011;46181;51.498;5.392;2023-04-03T12:16:26;1.82;;;0.632;;
59986;SDS011;46181;51.498;5.392;2023-04-03T12:20:59;2.64;;;0.844;;
59986;SDS011;46181;51.498;5.392;2023-04-03T12:29:58;5.855999;;;2.144;;
59986;SDS011;46181;51.498;5.392;2023-04-03T12:34:33;2.272;;;0.792;;
59986;SDS011;46181;51.498;5.392;2023-04-03T12:39:00;1.88;;;0.612;;
59986;SDS011;46181;51.498;5.392;2023-04-03T12:47:56;2.304;;;0.796;;
59986;SDS011;46181;51.498;5.392;2023-04-03T12:52:29;2.932;;;0.708;;
59986;SDS011;46181;51.498;5.392;2023-04-03T12:56:55;2.068;;;0.7;;
59986;SDS011;46181;51.498;5.392;2023-04-03T13:01:25;1.796;;;0.656;;
59986;SDS011;46181;51.498;5.392;2023-04-03T13:05:57;2.972;;;0.864;;
59986;SDS011;46181;51.498;5.392;2023-04-03T13:10:25;2.108;;;0.732;;
59986;SDS011;46181;51.498;5.392;2023-04-03T13:14:56;2.596;;;0.792;;
59986;SDS011;46181;51.498;5.392;2023-04-03T13:19:26;2.808;;;1.048;;
59986;SDS011;46181;51.498;5.392;2023-04-03T13:23:57;1.524;;;0.696;;
59986;SDS011;46181;51.498;5.392;2023-04-03T13:28:26;2.844;;;0.844;;
59986;SDS011;46181;51.498;5.392;2023-04-03T13:32:56;1.956;;;0.724;;
59986;SDS011;46181;51.498;5.392;2023-04-03T13:37:26;2.112;;;0.916;;
59986;SDS011;46181;51.498;5.392;2023-04-03T13:41:56;2.54;;;0.86;;
59986;SDS011;46181;51.498;5.392;2023-04-03T13:46:27;2.528;;;0.82;;
59986;SDS011;46181;51.498;5.392;2023-04-03T13:50:57;2.656;;;0.804;;
59986;SDS011;46181;51.498;5.392;2023-04-03T13:55:26;2.480001;;;0.952;;
59986;SDS011;46181;51.498;5.392;2023-04-03T13:59:55;4.556001;;;1.112;;
59986;SDS011;46181;51.498;5.392;2023-04-03T14:04:27;3.452;;;0.992;;
59986;SDS011;46181;51.498;5.392;2023-04-03T14:08:55;3.496;;;0.976;;
59986;SDS011;46181;51.498;5.392;2023-04-03T14:13:25;3.675999;;;1.1;;
59986;SDS011;46181;51.498;5.392;2023-04-03T14:17:55;4.12;;;1.268;;
59986;SDS011;46181;51.498;5.392;2023-04-03T14:22:27;2.488;;;0.964;;
59986;SDS011;46181;51.498;5.392;2023-04-03T14:26:55;4.264;;;1.012;;
59986;SDS011;46181;51.498;5.392;2023-04-03T14:31:25;2.624;;;1.12;;
59986;SDS011;46181;51.498;5.392;2023-04-03T14:35:55;5.436;;;1.168;;
59986;SDS011;46181;51.498;5.392;2023-04-03T14:40:26;2.724;;;1.048;;
59986;SDS011;46181;51.498;5.392;2023-04-03T14:44:56;3.548;;;1.124;;
59986;SDS011;46181;51.498;5.392;2023-04-03T14:49:26;3.152;;;0.912;;
59986;SDS011;46181;51.498;5.392;2023-04-03T14:53:55;5.952;;;1.952;;
59986;SDS011;46181;51.498;5.392;2023-04-03T14:58:26;2.24;;;0.808;;
59986;SDS011;46181;51.498;5.392;2023-04-03T15:02:55;2.464;;;1.012;;
59986;SDS011;46181;51.498;5.392;2023-04-03T15:07:26;2.572;;;1.1;;
59986;SDS011;46181;51.498;5.392;2023-04-03T15:11:56;3.344;;;1.108;;
59986;SDS011;46181;51.498;5.392;2023-04-03T15:16:26;2.836001;;;1.116;;
59986;SDS011;46181;51.498;5.392;2023-04-03T15:20:55;2.704;;;0.956;;
59986;SDS011;46181;51.498;5.392;2023-04-03T15:25:25;2.66;;;1.064;;
59986;SDS011;46181;51.498;5.392;2023-04-03T15:29:55;3.311999;;;1.108;;
59986;SDS011;46181;51.498;5.392;2023-04-03T15:34:25;2.992;;;1.176;;
59986;SDS011;46181;51.498;5.392;2023-04-03T15:38:55;2.276;;;0.956;;
59986;SDS011;46181;51.498;5.392;2023-04-03T15:43:25;3.392001;;;1.032;;
59986;SDS011;46181;51.498;5.392;2023-04-03T15:47:55;3.368001;;;1.476;;
59986;SDS011;46181;51.498;5.392;2023-04-03T15:52:26;4.52;;;1.24;;
59986;SDS011;46181;51.498;5.392;2023-04-03T15:56:56;3.816;;;1.32;;
59986;SDS011;46181;51.498;5.392;2023-04-03T16:01:26;2.732;;;1;;
59986;SDS011;46181;51.498;5.392;2023-04-03T16:05:56;2.844;;;1.328;;
59986;SDS011;46181;51.498;5.392;2023-04-03T16:10:26;4.243999;;;1.12;;
59986;SDS011;46181;51.498;5.392;2023-04-03T16:14:55;1.912;;;0.988;;
59986;SDS011;46181;51.498;5.392;2023-04-03T16:19:26;2.716;;;1.188;;
59986;SDS011;46181;51.498;5.392;2023-04-03T16:23:56;2.544;;;1.204;;
59986;SDS011;46181;51.498;5.392;2023-04-03T16:28:25;3.404;;;1.1;;
59986;SDS011;46181;51.498;5.392;2023-04-03T16:32:55;4.112;;;1.06;;
59986;SDS011;46181;51.498;5.392;2023-04-03T16:37:26;3.536;;;1.268;;
59986;SDS011;46181;51.498;5.392;2023-04-03T16:41:56;3.956;;;1.208;;
59986;SDS011;46181;51.498;5.392;2023-04-03T16:46:26;3.608;;;1.14;;
59986;SDS011;46181;51.498;5.392;2023-04-03T16:50:56;3.308;;;0.844;;
59986;SDS011;46181;51.498;5.392;2023-04-03T16:55:26;2.999999;;;1.032;;
59986;SDS011;46181;51.498;5.392;2023-04-03T16:59:56;5.384;;;1.42;;
59986;SDS011;46181;51.498;5.392;2023-04-03T17:04:26;2.456;;;1.032;;
59986;SDS011;46181;51.498;5.392;2023-04-03T17:08:56;3.872;;;1.288;;
59986;SDS011;46181;51.498;5.392;2023-04-03T17:13:26;3.812;;;1.232;;
59986;SDS011;46181;51.498;5.392;2023-04-03T17:17:56;3.683999;;;1.3;;
59986;SDS011;46181;51.498;5.392;2023-04-03T17:22:26;3.14;;;1.184;;
59986;SDS011;46181;51.498;5.392;2023-04-03T17:26:56;2.512;;;1.008;;
59986;SDS011;46181;51.498;5.392;2023-04-03T17:31:26;4.316;;;1.66;;
59986;SDS011;46181;51.498;5.392;2023-04-03T17:35:56;3.872001;;;1.216;;
59986;SDS011;46181;51.498;5.392;2023-04-03T17:40:26;2.892;;;0.92;;
59986;SDS011;46181;51.498;5.392;2023-04-03T17:44:56;3.572;;;1.364;;
59986;SDS011;46181;51.498;5.392;2023-04-03T17:49:26;2.988;;;1.132;;
59986;SDS011;46181;51.498;5.392;2023-04-03T17:53:56;3.26;;;1.064;;
59986;SDS011;46181;51.498;5.392;2023-04-03T17:58:26;4.36;;;1.288;;
59986;SDS011;46181;51.498;5.392;2023-04-03T18:02:56;3.564;;;1.216;;
59986;SDS011;46181;51.498;5.392;2023-04-03T18:07:26;3.796001;;;1.384;;
59986;SDS011;46181;51.498;5.392;2023-04-03T18:11:56;5.024001;;;2.048;;
59986;SDS011;46181;51.498;5.392;2023-04-03T18:16:26;5.184;;;1.496;;
59986;SDS011;46181;51.498;5.392;2023-04-03T18:20:56;5.008001;;;1.748;;
59986;SDS011;46181;51.498;5.392;2023-04-03T18:25:26;4.124;;;1.548;;
59986;SDS011;46181;51.498;5.392;2023-04-03T18:29:57;8.804;;;2.636;;
59986;SDS011;46181;51.498;5.392;2023-04-03T18:34:26;6.604;;;2.34;;
59986;SDS011;46181;51.498;5.392;2023-04-03T18:38:56;7.476;;;3.084;;
59986;SDS011;46181;51.498;5.392;2023-04-03T18:43:26;6.763999;;;3.28;;
59986;SDS011;46181;51.498;5.392;2023-04-03T18:47:56;4.4;;;1.84;;
59986;SDS011;46181;51.498;5.392;2023-04-03T18:52:26;3.447999;;;1.32;;
59986;SDS011;46181;51.498;5.392;2023-04-03T18:56:56;6.111999;;;1.8;;
59986;SDS011;46181;51.498;5.392;2023-04-03T19:01:26;3.916;;;1.828;;
59986;SDS011;46181;51.498;5.392;2023-04-03T19:05:56;5.323999;;;1.584;;
59986;SDS011;46181;51.498;5.392;2023-04-03T19:10:26;7.244001;;;2.452;;
59986;SDS011;46181;51.498;5.392;2023-04-03T19:14:56;11.128;;;3.772;;
59986;SDS011;46181;51.498;5.392;2023-04-03T19:19:26;6.864001;;;2.639999;;
59986;SDS011;46181;51.498;5.392;2023-04-03T19:23:56;5.067999;;;1.612;;
59986;SDS011;46181;51.498;5.392;2023-04-03T19:28:26;4.136;;;1.904;;
59986;SDS011;46181;51.498;5.392;2023-04-03T19:32:56;4.576;;;1.56;;
59986;SDS011;46181;51.498;5.392;2023-04-03T19:37:26;5.619999;;;1.892;;
59986;SDS011;46181;51.498;5.392;2023-04-03T19:41:56;4.388;;;1.644;;
59986;SDS011;46181;51.498;5.392;2023-04-03T19:46:26;4.536;;;1.584;;
59986;SDS011;46181;51.498;5.392;2023-04-03T19:50:56;6.056;;;1.82;;
59986;SDS011;46181;51.498;5.392;2023-04-03T19:55:26;5.888001;;;2.524;;
59986;SDS011;46181;51.498;5.392;2023-04-03T19:59:56;5.447999;;;2;;
59986;SDS011;46181;51.498;5.392;2023-04-03T20:04:26;5.72;;;2.576;;
59986;SDS011;46181;51.498;5.392;2023-04-03T20:08:56;5.236;;;1.928;;
59986;SDS011;46181;51.498;5.392;2023-04-03T20:13:26;5.027999;;;1.832;;
59986;SDS011;46181;51.498;5.392;2023-04-03T20:17:56;5.956;;;1.948;;
59986;SDS011;46181;51.498;5.392;2023-04-03T20:22:26;4.975999;;;2.14;;
59986;SDS011;46181;51.498;5.392;2023-04-03T20:26:56;3.468;;;1.728;;
59986;SDS011;46181;51.498;5.392;2023-04-03T20:31:26;3.959999;;;2.004;;
59986;SDS011;46181;51.498;5.392;2023-04-03T20:35:56;3.932;;;1.752;;
59986;SDS011;46181;51.498;5.392;2023-04-03T20:40:26;5.8;;;2.172;;
59986;SDS011;46181;51.498;5.392;2023-04-03T20:44:56;3.935999;;;1.776;;
59986;SDS011;46181;51.498;5.392;2023-04-03T20:49:26;5.296;;;1.732;;
59986;SDS011;46181;51.498;5.392;2023-04-03T20:53:56;6.58;;;1.96;;
59986;SDS011;46181;51.498;5.392;2023-04-03T20:58:26;3.584;;;1.456;;
59986;SDS011;46181;51.498;5.392;2023-04-03T21:02:56;4.312001;;;1.708;;
59986;SDS011;46181;51.498;5.392;2023-04-03T21:20:56;4.104;;;1.484;;
59986;SDS011;46181;51.498;5.392;2023-04-03T21:25:26;4.756;;;1.604;;
59986;SDS011;46181;51.498;5.392;2023-04-03T21:29:56;3.412;;;1.328;;
59986;SDS011;46181;51.498;5.392;2023-04-03T21:34:26;2.704;;;1.504;;
59986;SDS011;46181;51.498;5.392;2023-04-03T21:38:58;3.38;;;1.796;;
59986;SDS011;46181;51.498;5.392;2023-04-03T21:43:26;4.187999;;;1.8;;
59986;SDS011;46181;51.498;5.392;2023-04-03T21:47:56;3.272;;;1.588;;
59986;SDS011;46181;51.498;5.392;2023-04-03T21:52:26;4.892;;;1.952;;
59986;SDS011;46181;51.498;5.392;2023-04-03T21:56:56;4.159999;;;1.6;;
59986;SDS011;46181;51.498;5.392;2023-04-03T22:01:26;4.4;;;1.628;;
59986;SDS011;46181;51.498;5.392;2023-04-03T22:05:56;5.848001;;;1.816;;
59986;SDS011;46181;51.498;5.392;2023-04-03T22:10:26;4.452;;;1.832;;
59986;SDS011;46181;51.498;5.392;2023-04-03T22:14:56;3.572;;;1.536;;
59986;SDS011;46181;51.498;5.392;2023-04-03T22:19:26;4.252;;;1.6;;
59986;SDS011;46181;51.498;5.392;2023-04-03T22:23:56;4.728;;;1.78;;
59986;SDS011;46181;51.498;5.392;2023-04-03T22:28:26;4.507999;;;2.084;;
59986;SDS011;46181;51.498;5.392;2023-04-03T22:32:56;4.160001;;;1.844;;
59986;SDS011;46181;51.498;5.392;2023-04-03T22:37:26;2.556;;;1.524;;
59986;SDS011;46181;51.498;5.392;2023-04-03T22:41:56;6.064;;;1.932;;
59986;SDS011;46181;51.498;5.392;2023-04-03T22:46:26;6.012;;;1.724;;
59986;SDS011;46181;51.498;5.392;2023-04-03T22:50:56;4.936;;;1.648;;
59986;SDS011;46181;51.498;5.392;2023-04-03T22:55:26;6.736;;;1.996;;
59986;SDS011;46181;51.498;5.392;2023-04-03T22:59:56;4.356;;;1.876;;
59986;SDS011;46181;51.498;5.392;2023-04-03T23:04:26;3.916001;;;1.496;;
59986;SDS011;46181;51.498;5.392;2023-04-03T23:08:56;4.9;;;1.956;;
59986;SDS011;46181;51.498;5.392;2023-04-03T23:13:26;4.828;;;1.924;;
59986;SDS011;46181;51.498;5.392;2023-04-03T23:17:56;3.716;;;1.896;;
59986;SDS011;46181;51.498;5.392;2023-04-03T23:22:26;4.715999;;;1.924;;
59986;SDS011;46181;51.498;5.392;2023-04-03T23:26:56;3.984;;;1.812;;
59986;SDS011;46181;51.498;5.392;2023-04-03T23:31:26;2.944;;;1.684;;
59986;SDS011;46181;51.498;5.392;2023-04-03T23:35:56;4.900001;;;2.14;;
59986;SDS011;46181;51.498;5.392;2023-04-03T23:40:26;4.388;;;1.56;;
59986;SDS011;46181;51.498;5.392;2023-04-03T23:44:56;4.264001;;;1.916;;
59986;SDS011;46181;51.498;5.392;2023-04-03T23:49:26;7.656001;;;1.932;;
59986;SDS011;46181;51.498;5.392;2023-04-03T23:53:56;3.32;;;1.86;;
59986;SDS011;46181;51.498;5.392;2023-04-03T23:58:26;5.127999;;;1.988;;
